Greenville, Ohio
Current Conditions -  °F | °C
As of 6:55 PM on Sunday 23 Nov 2014 (Local Time) from KVES Reporting Station
Moderate Rain Moderate Rain  
Wind Chill: 52°   Ceiling: 3500
Heat Index: 52°   Visibility: 7mi
Dew Point: 50°   Wind: 18mph
Humidity: 94%   Direction: 140°SE
Pressure: 29.46"   Gusts: 26mph
Location:  40.1°N, 84.63°W
Report Text: KVES 232355Z AUTO 14016G23KT 7SM RA SCT022 BKN035 OVC065 11/10 A2946 RMK AO2 P0008
Loading
Personal Weather Stations






























Interactive Weather Map New forecast layout! Learn more

10-Day Weather Forecast

Advertisements
Track Severe Weather on mobile